Time;durP1;ratioP1;P1;durP2;ratioP2;P2;SDS_P1;SDS_P2;PMS_P1;PMS_P2;Temp;Humidity;BMP_temperature;BMP_pressure;BME280_temperature;BME280_humidity;BME280_pressure;Samples;Min_cycle;Max_cycle;Signal;HPM_P1;HPM_P2
2023/02/10 06:54:32;;;;;;;22.02;13.73;;;;;;;;;;10541548;27;20105;-81
2023/02/10 06:59:33;;;;;;;21.63;14.15;;;;;;;;;;10567798;28;20557;-82
2023/02/10 07:04:34;;;;;;;;;;;;;;;;;;10544179;28;20032;-83
2023/02/10 07:09:35;;;;;;;19.40;12.93;;;;;;;;;;10559449;28;19904;-82
2023/02/10 07:14:38;;;;;;;21.23;15.05;;;;;;;;;;10552625;28;20277;-83
2023/02/10 07:19:39;;;;;;;13.15;9.68;;;;;;;;;;10565056;28;20024;-80
2023/02/10 07:24:40;;;;;;;23.08;17.73;;;;;;;;;;10567054;28;20029;-80
2023/02/10 07:29:41;;;;;;;38.83;26.60;;;;;;;;;;10544972;28;20028;-82
2023/02/10 07:34:42;;;;;;;13.85;9.73;;;;;;;;;;10541132;28;20472;-83
2023/02/10 07:39:43;;;;;;;24.00;17.10;;;;;;;;;;10541026;28;20029;-82
2023/02/10 07:44:44;;;;;;;;;;;;;;;;;;10544214;28;20020;-83
2023/02/10 07:49:45;;;;;;;17.00;12.52;;;;;;;;;;10562152;28;19905;-83
2023/02/10 07:54:46;;;;;;;;;;;;;;;;;;10542001;28;20055;-83
2023/02/10 07:59:47;;;;;;;21.05;13.93;;;;;;;;;;10558205;28;19912;-83
2023/02/10 08:04:48;;;;;;;;;;;;;;;;;;10520678;28;20032;-82
2023/02/10 08:09:49;;;;;;;24.67;18.45;;;;;;;;;;10531495;28;19911;-82
2023/02/10 08:14:50;;;;;;;;;;;;;;;;;;10518084;28;20406;-82
2023/02/10 08:19:51;;;;;;;27.80;18.63;;;;;;;;;;10531987;28;19957;-82
2023/02/10 08:24:52;;;;;;;;;;;;;;;;;;10513765;28;20170;-82
2023/02/10 08:29:53;;;;;;;25.58;19.15;;;;;;;;;;10527266;28;19954;-83
2023/02/10 08:34:54;;;;;;;;;;;;;;;;;;10510010;28;20136;-82
2023/02/10 08:39:58;;;;;;;21.27;16.13;;;;;;;;;;10527567;28;19908;-83
2023/02/10 08:44:59;;;;;;;19.42;14.18;;;;;;;;;;10507816;28;20025;-84
2023/02/10 08:50:00;;;;;;;;;;;;;;;;;;10527470;28;20062;-81
2023/02/10 08:55:01;;;;;;;28.77;18.58;;;;;;;;;;10543609;28;19905;-82
2023/02/10 09:00:02;;;;;;;20.08;14.40;;;;;;;;;;10505150;28;20033;-82
2023/02/10 09:05:04;;;;;;;18.75;14.30;;;;;;;;;;10505639;28;20028;-83
2023/02/10 09:10:04;;;;;;;;;;;;;;;;;;10510038;28;20470;-84
2023/02/10 09:15:06;;;;;;;23.42;16.67;;;;;;;;;;10529264;28;19943;-84
2023/02/10 09:20:07;;;;;;;17.13;11.63;;;;;;;;;;10508816;28;20064;-82
2023/02/10 09:25:08;;;;;;;22.08;15.82;;;;;;;;;;10507116;28;20046;-83
2023/02/10 09:30:12;;;;;;;;;;;;;;;;;;10509334;28;20052;-83
2023/02/10 09:35:15;;;;;;;30.75;23.17;;;;;;;;;;10522499;28;19904;-84
2023/02/10 09:40:24;;;;;;;28.02;18.80;;;;;;;;;;10507168;28;20048;-86
2023/02/10 09:45:27;;;;;;;26.00;19.83;;;;;;;;;;10505676;28;20024;-83
2023/02/10 09:50:42;;;;;;;25.38;18.70;;;;;;;;;;10507866;28;20056;-83
2023/02/10 09:55:43;;;;;;;27.35;19.45;;;;;;;;;;10507055;28;20490;-83
2023/02/10 10:00:44;;;;;;;;;;;;;;;;;;10513948;28;20028;-83
2023/02/10 10:05:51;;;;;;;20.95;14.40;;;;;;;;;;10524076;28;20362;-84
2023/02/10 10:10:54;;;;;;;21.70;17.40;;;;;;;;;;10509857;28;20475;-84
2023/02/10 10:15:58;;;;;;;28.55;20.15;;;;;;;;;;10507427;28;20028;-82
2023/02/10 10:21:18;;;;;;;25.88;19.35;;;;;;;;;;10508023;28;20027;-83
2023/02/10 10:26:28;;;;;;;26.08;19.98;;;;;;;;;;10510873;28;20475;-84
2023/02/10 10:31:32;;;;;;;33.20;23.13;;;;;;;;;;10519742;28;20489;-83
2023/02/10 10:36:47;;;;;;;20.30;14.70;;;;;;;;;;10512105;28;20031;-84
2023/02/10 10:41:48;;;;;;;22.52;16.98;;;;;;;;;;10511653;28;20037;-81
2023/02/10 10:47:08;;;;;;;18.75;14.45;;;;;;;;;;10509723;28;20024;-82
2023/02/10 10:52:24;;;;;;;27.00;18.85;;;;;;;;;;10524356;28;20070;-82
2023/02/10 10:57:26;;;;;;;22.95;18.05;;;;;;;;;;10515443;28;20418;-83
2023/02/10 11:02:27;;;;;;;33.30;24.38;;;;;;;;;;10520782;28;20043;-82
2023/02/10 11:07:28;;;;;;;;;;;;;;;;;;10523915;28;20480;-82
2023/02/10 11:12:38;;;;;;;21.08;16.67;;;;;;;;;;10528140;28;19911;-83
2023/02/10 11:17:40;;;;;;;21.10;14.95;;;;;;;;;;10514808;28;20028;-84
2023/02/10 11:22:43;;;;;;;30.70;21.73;;;;;;;;;;10517925;28;20127;-84
2023/02/10 11:27:51;;;;;;;32.65;23.95;;;;;;;;;;10512693;28;20024;-83
2023/02/10 11:32:52;;;;;;;24.13;18.10;;;;;;;;;;10510913;28;20391;-82
2023/02/10 11:37:53;;;;;;;;;;;;;;;;;;10514791;28;20020;-82
2023/02/10 11:43:04;;;;;;;27.80;17.45;;;;;;;;;;10564321;28;19916;-81
2023/02/10 11:48:19;;;;;;;18.85;13.73;;;;;;;;;;10544347;28;20025;-81
2023/02/10 11:53:28;;;;;;;22.33;16.27;;;;;;;;;;10536512;28;20052;-81
2023/02/10 12:03:58;;;;;;;19.02;13.35;;;;;;;;;;10516289;28;20042;-85
2023/02/10 12:09:02;;;;;;;36.97;24.98;;;;;;;;;;10515200;28;20033;-84
2023/02/10 12:14:18;;;;;;;21.70;15.43;;;;;;;;;;10516890;28;20123;-84
2023/02/10 12:19:28;;;;;;;26.90;18.23;;;;;;;;;;10518092;28;20021;-84
2023/02/10 12:24:55;;;;;;;30.50;23.05;;;;;;;;;;10521016;28;20055;-83
2023/02/10 12:30:06;;;;;;;20.33;13.70;;;;;;;;;;10524372;28;20025;-85
2023/02/10 12:35:10;;;;;;;33.42;24.65;;;;;;;;;;10525097;28;20078;-83
2023/02/10 12:40:17;;;;;;;29.13;20.02;;;;;;;;;;10515975;28;20072;-84
2023/02/10 12:45:22;;;;;;;31.23;21.23;;;;;;;;;;10515022;28;20067;-83
2023/02/10 12:50:42;;;;;;;26.45;17.70;;;;;;;;;;10517787;28;20072;-84
2023/02/10 12:55:55;;;;;;;21.63;14.25;;;;;;;;;;10537495;28;20032;-84
2023/02/10 13:01:15;;;;;;;15.38;10.30;;;;;;;;;;10513449;28;20037;-83
2023/02/10 13:06:19;;;;;;;22.20;13.35;;;;;;;;;;10512351;28;20119;-84
2023/02/10 13:11:44;;;;;;;18.45;12.93;;;;;;;;;;10512972;28;20024;-85
2023/02/10 13:16:53;;;;;;;20.55;12.15;;;;;;;;;;10514261;28;20099;-84
2023/02/10 13:21:54;;;;;;;15.10;9.32;;;;;;;;;;10513139;28;20035;-84
2023/02/10 13:27:02;;;;;;;15.27;8.95;;;;;;;;;;10510569;28;20025;-84
2023/02/10 13:32:22;;;;;;;16.50;8.07;;;;;;;;;;10512431;28;20457;-84
2023/02/10 13:37:29;;;;;;;13.00;7.53;;;;;;;;;;10510681;28;20390;-84
2023/02/10 13:42:32;;;;;;;13.30;8.20;;;;;;;;;;10514498;28;20025;-84
2023/02/10 13:47:40;;;;;;;15.48;8.55;;;;;;;;;;10515374;28;20443;-84
2023/02/10 13:52:56;;;;;;;14.27;7.55;;;;;;;;;;10513043;28;20062;-84
2023/02/10 13:57:58;;;;;;;16.02;9.23;;;;;;;;;;10513395;28;20078;-85
2023/02/10 14:03:11;;;;;;;13.52;6.70;;;;;;;;;;10511798;28;20036;-84
2023/02/10 14:08:26;;;;;;;14.07;7.72;;;;;;;;;;10510719;28;20027;-84
2023/02/10 14:13:29;;;;;;;15.20;8.98;;;;;;;;;;10514208;28;20043;-84
2023/02/10 14:18:34;;;;;;;11.02;7.43;;;;;;;;;;10511144;28;20028;-85
2023/02/10 14:23:36;;;;;;;11.77;7.28;;;;;;;;;;10512523;28;20032;-84
2023/02/10 14:28:39;;;;;;;17.95;11.38;;;;;;;;;;10513563;28;20027;-84
2023/02/10 14:33:41;;;;;;;14.35;10.18;;;;;;;;;;10513730;28;20055;-85
2023/02/10 14:38:46;;;;;;;18.20;11.05;;;;;;;;;;10512582;28;20028;-85
2023/02/10 14:43:48;;;;;;;15.95;9.25;;;;;;;;;;10525421;28;20043;-82
2023/02/10 14:48:52;;;;;;;14.43;10.32;;;;;;;;;;10514859;28;20140;-84
2023/02/10 14:53:54;;;;;;;16.65;10.88;;;;;;;;;;10512335;28;20052;-84
2023/02/10 14:58:55;;;;;;;16.35;10.23;;;;;;;;;;10511848;28;20020;-83
2023/02/10 15:03:57;;;;;;;25.38;14.02;;;;;;;;;;10510703;28;20075;-84
2023/02/10 15:09:04;;;;;;;19.08;12.85;;;;;;;;;;10510941;28;20509;-84
2023/02/10 15:14:06;;;;;;;16.35;9.85;;;;;;;;;;10519010;28;20033;-84
2023/02/10 15:19:13;;;;;;;17.30;12.15;;;;;;;;;;10521454;28;20025;-86
2023/02/10 15:24:26;;;;;;;18.45;11.90;;;;;;;;;;10519092;28;20123;-84
2023/02/10 15:29:36;;;;;;;21.48;14.45;;;;;;;;;;10521497;28;20021;-83
2023/02/10 15:34:37;;;;;;;16.33;10.27;;;;;;;;;;10518680;28;20057;-84
2023/02/10 15:39:41;;;;;;;20.45;12.65;;;;;;;;;;10520046;28;20178;-83
2023/02/10 15:44:43;;;;;;;19.70;14.43;;;;;;;;;;10518756;28;20029;-83
2023/02/10 15:49:45;;;;;;;15.13;10.30;;;;;;;;;;10519525;28;20029;-83
2023/02/10 15:54:48;;;;;;;24.40;17.55;;;;;;;;;;10520813;28;20033;-84
2023/02/10 15:59:51;;;;;;;24.58;16.83;;;;;;;;;;10521961;28;20033;-83
2023/02/10 16:04:52;;;;;;;20.15;14.73;;;;;;;;;;10524318;28;20058;-85
2023/02/10 16:09:53;;;;;;;18.58;13.77;;;;;;;;;;10531642;28;20028;-83
2023/02/10 16:14:55;;;;;;;21.40;14.88;;;;;;;;;;10528692;28;20044;-85
2023/02/10 16:19:56;;;;;;;15.32;11.85;;;;;;;;;;10520426;28;20058;-83
2023/02/10 16:24:57;;;;;;;;;;;;;;;;;;10517114;28;20060;-84
2023/02/10 16:29:58;;;;;;;17.60;14.13;;;;;;;;;;10537877;28;20010;-84
2023/02/10 16:34:59;;;;;;;16.50;12.18;;;;;;;;;;10537162;28;20012;-84
2023/02/10 16:40:00;;;;;;;;;;;;;;;;;;10525289;28;20058;-82
2023/02/10 16:45:01;;;;;;;12.80;8.85;;;;;;;;;;10536491;28;19944;-82
2023/02/10 16:50:02;;;;;;;;;;;;;;;;;;10518579;28;20500;-81
2023/02/10 16:55:03;;;;;;;14.63;10.40;;;;;;;;;;10536214;28;20028;-81
2023/02/10 17:00:04;;;;;;;12.90;9.10;;;;;;;;;;10515632;28;20048;-81
2023/02/10 17:05:06;;;;;;;14.02;9.13;;;;;;;;;;10514831;28;20021;-82
2023/02/10 17:10:08;;;;;;;14.60;11.25;;;;;;;;;;10514677;28;20033;-83
2023/02/10 17:15:10;;;;;;;14.50;10.93;;;;;;;;;;10521950;28;20076;-85
2023/02/10 17:20:25;;;;;;;8.63;5.93;;;;;;;;;;10538020;28;20028;-79
2023/02/10 17:25:26;;;;;;;12.90;9.77;;;;;;;;;;10519053;28;20081;-81
2023/02/10 17:30:27;;;;;;;;;;;;;;;;;;10520609;28;20137;-85
2023/02/10 17:35:28;;;;;;;10.38;8.05;;;;;;;;;;10536210;28;19967;-86
2023/02/10 17:40:33;;;;;;;15.65;13.07;;;;;;;;;;10523063;28;20039;-85
2023/02/10 17:46:01;;;;;;;11.45;9.73;;;;;;;;;;10523907;28;20023;-85
2023/02/10 17:51:33;;;;;;;18.52;14.90;;;;;;;;;;10530318;28;20133;-85
2023/02/10 17:56:46;;;;;;;13.82;9.60;;;;;;;;;;10509937;28;20049;-85
2023/02/10 18:01:49;;;;;;;25.73;17.00;;;;;;;;;;10534113;28;20040;-85
2023/02/10 18:06:50;;;;;;;21.45;15.88;;;;;;;;;;10533688;28;20029;-85
2023/02/10 18:11:51;;;;;;;;;;;;;;;;;;10532932;28;20123;-85
2023/02/10 18:16:52;;;;;;;14.27;10.80;;;;;;;;;;10550965;28;19950;-85
2023/02/10 18:21:54;;;;;;;21.65;16.67;;;;;;;;;;10533670;28;20028;-85
2023/02/10 18:26:55;;;;;;;16.30;12.38;;;;;;;;;;10539868;28;20036;-85
2023/02/10 18:31:56;;;;;;;;;;;;;;;;;;10527173;28;20030;-85
2023/02/10 18:36:57;;;;;;;14.02;9.82;;;;;;;;;;10545027;28;20438;-85
2023/02/10 18:41:58;;;;;;;;;;;;;;;;;;10528323;28;20100;-84
2023/02/10 18:46:59;;;;;;;20.92;16.30;;;;;;;;;;10540794;28;19967;-85
2023/02/10 18:52:00;;;;;;;;;;;;;;;;;;10524569;28;20044;-85
2023/02/10 18:57:02;;;;;;;21.33;15.60;;;;;;;;;;10540666;28;20262;-85
2023/02/10 19:02:04;;;;;;;26.35;18.25;;;;;;;;;;10527517;28;20123;-85
2023/02/10 19:07:05;;;;;;;20.67;14.93;;;;;;;;;;10531272;28;20096;-85
2023/02/10 19:12:06;;;;;;;19.40;14.68;;;;;;;;;;10530839;28;20029;-85
2023/02/10 19:17:08;;;;;;;47.72;33.70;;;;;;;;;;10526876;28;20076;-85
2023/02/10 19:22:09;;;;;;;17.85;14.07;;;;;;;;;;10527710;28;20037;-85
2023/02/10 19:27:10;;;;;;;25.25;18.45;;;;;;;;;;10527439;28;20034;-85
2023/02/10 19:32:11;;;;;;;25.95;19.05;;;;;;;;;;10523092;28;20472;-85
2023/02/10 19:37:13;;;;;;;30.38;21.48;;;;;;;;;;10528332;28;20029;-85
2023/02/10 19:42:14;;;;;;;21.17;16.02;;;;;;;;;;10525432;28;20116;-85
2023/02/10 19:47:15;;;;;;;26.45;19.15;;;;;;;;;;10525153;28;20021;-84
2023/02/10 19:52:16;;;;;;;28.35;20.58;;;;;;;;;;10520789;28;20033;-85
2023/02/10 19:57:17;;;;;;;16.27;12.52;;;;;;;;;;10518442;28;20040;-84
2023/02/10 20:02:19;;;;;;;;;;;;;;;;;;10522601;28;20082;-85
2023/02/10 20:07:20;;;;;;;29.80;18.13;;;;;;;;;;10548165;28;19905;-85
2023/02/10 20:12:21;;;;;;;20.23;14.82;;;;;;;;;;10532911;28;20436;-85
2023/02/10 20:17:22;;;;;;;17.42;12.90;;;;;;;;;;10538522;28;20017;-85
